createdAt,value
2023-05-19T00:02:09.154Z,11.68
2023-05-19T00:04:54.831Z,11.88
2023-05-19T00:07:40.249Z,11.30
2023-05-19T00:10:30.372Z,11.64
2023-05-19T00:13:15.905Z,11.46
2023-05-19T00:16:01.175Z,11.67
2023-05-19T00:18:47.480Z,12.10
2023-05-19T00:21:32.822Z,12.06
2023-05-19T00:24:17.884Z,12.17
2023-05-19T00:27:02.803Z,12.28
2023-05-19T00:29:47.803Z,12.61
2023-05-19T00:32:32.630Z,12.68
2023-05-19T00:35:18.241Z,12.33
2023-05-19T00:38:03.426Z,12.50
2023-05-19T00:40:48.371Z,12.51
2023-05-19T00:43:36.499Z,12.46
2023-05-19T00:46:22.857Z,12.58
2023-05-19T00:49:08.219Z,11.92
2023-05-19T00:51:54.384Z,11.94
2023-05-19T00:54:39.412Z,12.43
2023-05-19T00:57:24.421Z,12.51
2023-05-19T01:00:11.190Z,12.48
2023-05-19T01:02:56.986Z,12.76
2023-05-19T01:05:45.064Z,12.68
2023-05-19T01:08:33.920Z,12.50
2023-05-19T01:11:19.028Z,12.78
2023-05-19T01:14:03.904Z,12.66
2023-05-19T01:16:58.264Z,12.34
2023-05-19T01:20:12.331Z,12.38
2023-05-19T01:23:16.691Z,12.35
2023-05-19T01:26:16.407Z,11.76
2023-05-19T01:29:24.711Z,11.43
2023-05-19T01:32:12.166Z,11.44
2023-05-19T01:34:58.147Z,11.69
2023-05-19T01:37:45.267Z,11.58
2023-05-19T01:40:31.618Z,11.54
2023-05-19T01:43:19.689Z,11.60
2023-05-19T01:46:05.543Z,11.30
2023-05-19T01:48:52.552Z,11.51
2023-05-19T01:51:38.314Z,11.17
2023-05-19T01:54:23.738Z,11.12
2023-05-19T01:57:38.359Z,11.40
2023-05-19T02:00:54.035Z,11.25
2023-05-19T02:04:00.716Z,11.20
2023-05-19T02:07:01.583Z,11.14
2023-05-19T02:10:04.249Z,11.21
2023-05-19T02:12:53.180Z,11.40
2023-05-19T02:15:42.122Z,12.11
2023-05-19T02:18:29.830Z,11.58
2023-05-19T02:21:14.940Z,11.66
2023-05-19T02:24:01.284Z,11.17
2023-05-19T02:26:46.413Z,11.47
2023-05-19T02:29:35.439Z,11.44
2023-05-19T02:32:21.104Z,11.30
2023-05-19T02:35:06.714Z,11.89
2023-05-19T02:37:51.571Z,11.87
2023-05-19T02:40:36.342Z,12.04
2023-05-19T02:43:21.262Z,12.09
2023-05-19T02:46:06.398Z,12.16
2023-05-19T02:48:52.113Z,11.82
2023-05-19T02:51:37.522Z,11.90
2023-05-19T02:54:22.341Z,12.17
2023-05-19T02:57:08.009Z,12.16
2023-05-19T02:59:52.753Z,11.97
2023-05-19T03:02:37.727Z,11.88
2023-05-19T03:05:22.994Z,11.49
2023-05-19T03:08:07.937Z,10.92
2023-05-19T03:10:53.115Z,10.96
2023-05-19T03:13:37.828Z,11.02
2023-05-19T03:16:22.810Z,11.37
2023-05-19T03:19:08.077Z,11.02
2023-05-19T03:21:53.086Z,10.60
2023-05-19T03:24:37.947Z,10.70
2023-05-19T03:27:23.257Z,10.57
2023-05-19T03:30:08.989Z,10.57
2023-05-19T03:32:54.170Z,11.09
2023-05-19T03:35:39.824Z,10.71
2023-05-19T03:38:24.957Z,10.95
2023-05-19T03:41:10.486Z,10.66
2023-05-19T03:43:55.320Z,10.84
2023-05-19T03:46:40.759Z,10.49
2023-05-19T03:49:25.605Z,10.85
2023-05-19T03:52:10.890Z,10.73
2023-05-19T03:54:57.530Z,10.93
2023-05-19T03:57:44.578Z,10.82
2023-05-19T04:00:29.877Z,11.09
2023-05-19T04:03:15.269Z,11.59
2023-05-19T04:06:00.429Z,11.36
2023-05-19T04:08:45.307Z,11.24
2023-05-19T04:11:29.982Z,11.23
2023-05-19T04:14:14.753Z,11.75
2023-05-19T04:16:59.885Z,11.61
2023-05-19T04:19:45.469Z,11.68
2023-05-19T04:22:30.288Z,11.69
2023-05-19T04:25:15.463Z,11.77
2023-05-19T04:28:01.281Z,11.47
2023-05-19T04:30:46.580Z,11.86
2023-05-19T04:33:33.898Z,11.96
2023-05-19T04:36:21.344Z,11.81
2023-05-19T04:39:12.536Z,11.41
2023-05-19T04:41:57.638Z,11.17
2023-05-19T04:44:42.445Z,11.03
2023-05-19T04:47:27.997Z,10.95
2023-05-19T04:50:14.152Z,11.39
2023-05-19T04:52:59.263Z,11.41
2023-05-19T04:55:45.212Z,11.82
2023-05-19T04:58:30.450Z,11.73
2023-05-19T05:01:15.735Z,11.83
2023-05-19T05:04:02.984Z,12.14
2023-05-19T05:06:48.734Z,11.56
2023-05-19T05:09:34.152Z,11.27
2023-05-19T05:12:19.809Z,11.29
2023-05-19T05:15:06.861Z,11.19
2023-05-19T05:17:52.187Z,11.38
2023-05-19T05:20:37.743Z,11.73
2023-05-19T05:23:22.741Z,11.80
2023-05-19T05:26:18.701Z,11.94
2023-05-19T05:29:04.311Z,11.94
2023-05-19T05:31:49.517Z,12.09
2023-05-19T05:34:36.299Z,11.91
2023-05-19T05:37:21.367Z,12.13
2023-05-19T05:40:07.323Z,12.36
2023-05-19T05:42:52.296Z,12.46
2023-05-19T05:45:38.192Z,12.47
2023-05-19T05:48:23.226Z,12.18
2023-05-19T05:51:09.297Z,12.40
2023-05-19T05:53:55.896Z,12.51
2023-05-19T05:56:42.687Z,12.39
2023-05-19T05:59:28.029Z,12.43
2023-05-19T06:02:14.023Z,12.45
2023-05-19T06:04:59.325Z,12.39
2023-05-19T06:07:46.573Z,12.59
2023-05-19T06:10:32.756Z,12.81
2023-05-19T06:13:22.847Z,13.08
2023-05-19T06:16:08.009Z,13.11
2023-05-19T06:18:52.899Z,13.17
2023-05-19T06:21:38.153Z,13.21
2023-05-19T06:24:23.102Z,13.74
2023-05-19T06:27:08.357Z,13.86
2023-05-19T06:29:53.797Z,13.98
2023-05-19T06:32:39.314Z,14.16
2023-05-19T06:35:24.804Z,14.51
2023-05-19T06:38:10.393Z,14.50
2023-05-19T06:40:55.524Z,14.69
2023-05-19T06:43:40.388Z,14.88
2023-05-19T06:46:25.199Z,15.36
2023-05-19T06:49:11.294Z,15.09
2023-05-19T06:51:57.485Z,15.76
2023-05-19T06:54:42.393Z,15.75
2023-05-19T06:57:27.491Z,15.54
2023-05-19T07:00:14.614Z,15.93
2023-05-19T07:03:02.505Z,16.17
2023-05-19T07:05:47.859Z,16.33
2023-05-19T07:08:32.746Z,16.23
2023-05-19T07:11:17.872Z,16.00
2023-05-19T07:14:03.046Z,15.89
2023-05-19T07:16:47.985Z,15.90
2023-05-19T07:19:33.108Z,15.54
2023-05-19T07:22:18.215Z,15.63
2023-05-19T07:25:03.779Z,15.71
2023-05-19T07:27:49.552Z,15.67
2023-05-19T07:30:34.886Z,15.89
2023-05-19T07:33:20.667Z,16.24
2023-05-19T07:36:05.903Z,15.96
2023-05-19T07:38:51.547Z,16.20
2023-05-19T07:41:36.732Z,16.11
2023-05-19T07:44:22.614Z,16.30
2023-05-19T07:47:07.734Z,15.99
2023-05-19T07:49:52.859Z,15.95
2023-05-19T07:52:37.766Z,16.03
2023-05-19T07:55:33.512Z,16.25
2023-05-19T07:58:19.703Z,16.37
2023-05-19T08:01:05.856Z,16.39
2023-05-19T08:03:51.339Z,16.25
2023-05-19T08:06:36.244Z,16.70
2023-05-19T08:09:21.215Z,16.98
2023-05-19T08:12:06.088Z,17.08
2023-05-19T08:14:51.254Z,17.13
2023-05-19T08:17:36.577Z,17.28
2023-05-19T08:20:22.737Z,17.11
2023-05-19T08:23:07.917Z,17.23
2023-05-19T08:25:52.784Z,17.11
2023-05-19T08:28:37.763Z,17.48
2023-05-19T08:31:22.672Z,17.85
2023-05-19T08:34:07.845Z,17.85
2023-05-19T08:36:53.386Z,18.20
2023-05-19T08:39:38.613Z,18.25
2023-05-19T08:42:23.677Z,18.52
2023-05-19T08:45:09.383Z,18.67
2023-05-19T08:47:54.712Z,18.84
2023-05-19T08:50:44.315Z,19.07
2023-05-19T08:53:36.714Z,18.44
2023-05-19T08:56:24.121Z,18.75
2023-05-19T08:59:09.188Z,18.41
2023-05-19T09:01:55.596Z,18.43
2023-05-19T09:04:41.886Z,18.67
2023-05-19T09:07:27.851Z,19.07
2023-05-19T09:10:14.743Z,18.89
2023-05-19T09:13:00.133Z,18.91
2023-05-19T09:15:45.851Z,19.11
2023-05-19T09:18:31.377Z,19.28
2023-05-19T09:21:17.050Z,18.80
2023-05-19T09:24:06.360Z,18.07
2023-05-19T09:26:51.448Z,18.19
2023-05-19T09:29:36.423Z,18.25
2023-05-19T09:32:27.613Z,18.39
2023-05-19T09:35:13.660Z,18.72
2023-05-19T09:37:59.068Z,19.51
2023-05-19T09:40:44.032Z,19.41
2023-05-19T09:43:36.374Z,19.43
2023-05-19T09:46:28.745Z,19.67
2023-05-19T09:49:14.279Z,19.19
2023-05-19T09:52:03.598Z,18.88
2023-05-19T09:54:48.782Z,19.05
2023-05-19T09:57:38.600Z,19.24
2023-05-19T10:00:23.873Z,19.28
2023-05-19T10:03:10.330Z,19.40
2023-05-19T10:05:55.678Z,19.08
2023-05-19T10:08:43.306Z,19.62
2023-05-19T10:11:30.071Z,19.16
2023-05-19T10:14:15.791Z,19.64
2023-05-19T10:17:00.747Z,20.03
2023-05-19T10:19:48.196Z,20.36
2023-05-19T10:22:34.861Z,20.46
2023-05-19T10:25:20.083Z,20.74
2023-05-19T10:28:11.375Z,19.89
2023-05-19T10:31:00.323Z,20.18
2023-05-19T10:33:59.358Z,20.44
2023-05-19T10:37:18.225Z,20.47
2023-05-19T10:40:20.000Z,20.42
2023-05-19T10:43:33.133Z,20.57
2023-05-19T10:46:19.320Z,21.24
2023-05-19T10:49:04.229Z,21.30
2023-05-19T10:51:49.794Z,21.75
2023-05-19T10:54:47.377Z,21.08
2023-05-19T10:57:34.584Z,20.34
2023-05-19T11:00:30.143Z,20.14
2023-05-19T11:03:17.666Z,19.54
2023-05-19T11:06:36.044Z,19.19
2023-05-19T11:09:37.855Z,19.02
2023-05-19T11:12:25.488Z,19.28
2023-05-19T11:15:13.813Z,19.61
2023-05-19T11:18:01.693Z,20.41
2023-05-19T11:20:57.953Z,20.87
2023-05-19T11:23:43.982Z,20.83
2023-05-19T11:26:45.942Z,20.84
2023-05-19T11:29:32.861Z,20.87
2023-05-19T11:32:26.628Z,20.71
2023-05-19T11:35:11.600Z,20.38
2023-05-19T11:37:57.508Z,20.00
2023-05-19T11:40:43.410Z,19.84
2023-05-19T11:43:28.557Z,19.51
2023-05-19T11:46:13.883Z,19.61
2023-05-19T11:49:01.325Z,19.24
2023-05-19T11:51:46.860Z,19.13
2023-05-19T11:54:36.702Z,19.43
2023-05-19T11:57:22.415Z,20.21
2023-05-19T12:00:09.334Z,20.85
2023-05-19T12:02:55.042Z,21.54
2023-05-19T12:05:47.756Z,21.43
2023-05-19T12:08:33.182Z,21.16
2023-05-19T12:11:20.053Z,21.80
2023-05-19T12:14:05.861Z,21.55
2023-05-19T12:16:50.853Z,21.75
2023-05-19T12:19:36.799Z,22.06
2023-05-19T12:22:22.451Z,21.97
2023-05-19T12:25:08.531Z,22.39
2023-05-19T12:28:02.921Z,21.70
2023-05-19T12:30:51.916Z,21.22
2023-05-19T12:33:37.454Z,21.64
2023-05-19T12:36:24.291Z,21.12
2023-05-19T12:39:10.064Z,20.81
2023-05-19T12:42:04.490Z,21.00
2023-05-19T12:44:52.334Z,21.49
2023-05-19T12:47:37.209Z,21.69
2023-05-19T12:50:29.766Z,22.10
2023-05-19T12:53:15.709Z,22.90
2023-05-19T12:56:00.893Z,21.78
2023-05-19T12:58:46.104Z,21.94
2023-05-19T13:01:31.584Z,22.09
2023-05-19T13:04:17.424Z,22.67
2023-05-19T13:07:02.574Z,22.36
2023-05-19T13:09:48.226Z,21.53
2023-05-19T13:12:33.524Z,20.39
2023-05-19T13:15:19.082Z,20.25
2023-05-19T13:18:07.167Z,20.50
2023-05-19T13:20:52.990Z,20.07
2023-05-19T13:23:38.417Z,19.79
2023-05-19T13:26:23.596Z,20.30
2023-05-19T13:29:12.257Z,20.47
2023-05-19T13:31:58.109Z,20.17
2023-05-19T13:34:46.712Z,20.25
2023-05-19T13:37:31.596Z,20.64
2023-05-19T13:40:17.757Z,20.87
2023-05-19T13:43:03.482Z,20.75
2023-05-19T13:45:48.948Z,19.96
2023-05-19T13:48:33.713Z,19.69
2023-05-19T13:51:18.662Z,19.62
2023-05-19T13:54:03.425Z,19.90
2023-05-19T13:56:49.648Z,20.31
2023-05-19T13:59:36.023Z,21.20
2023-05-19T14:02:24.252Z,21.10
2023-05-19T14:05:10.257Z,21.34
2023-05-19T14:07:55.411Z,21.75
2023-05-19T14:10:40.318Z,21.24
2023-05-19T14:13:33.059Z,20.86
2023-05-19T14:16:22.806Z,21.11
2023-05-19T14:19:08.153Z,21.64
2023-05-19T14:21:53.021Z,21.86
2023-05-19T14:24:37.988Z,21.60
2023-05-19T14:27:22.829Z,21.69
2023-05-19T14:30:08.860Z,21.18
2023-05-19T14:32:54.357Z,20.97
2023-05-19T14:35:41.062Z,21.09
2023-05-19T14:38:27.622Z,20.90
2023-05-19T14:41:13.551Z,20.69
2023-05-19T14:43:58.501Z,20.62
2023-05-19T14:46:43.787Z,20.65
2023-05-19T14:49:28.542Z,20.35
2023-05-19T14:52:13.631Z,20.36
2023-05-19T14:54:58.548Z,20.11
2023-05-19T14:57:43.862Z,19.95
2023-05-19T15:00:31.622Z,20.14
2023-05-19T15:03:17.472Z,20.07
2023-05-19T15:06:02.956Z,20.13
2023-05-19T15:08:47.844Z,20.57
2023-05-19T15:11:33.165Z,20.88
2023-05-19T15:14:18.072Z,20.97
2023-05-19T15:17:03.088Z,20.90
2023-05-19T15:19:48.625Z,21.34
2023-05-19T15:22:34.034Z,21.02
2023-05-19T15:25:18.984Z,20.74
2023-05-19T15:28:04.228Z,20.81
2023-05-19T15:30:49.266Z,20.70
2023-05-19T15:33:34.804Z,21.10
2023-05-19T15:36:19.872Z,21.20
2023-05-19T15:39:06.744Z,21.33
2023-05-19T15:41:51.793Z,21.09
2023-05-19T15:44:36.710Z,21.35
2023-05-19T15:47:21.800Z,20.67
2023-05-19T15:50:08.814Z,20.49
2023-05-19T15:52:56.750Z,20.33
2023-05-19T15:55:44.553Z,19.95
2023-05-19T15:58:41.336Z,19.69
2023-05-19T16:01:35.238Z,19.56
2023-05-19T16:04:22.780Z,19.53
2023-05-19T16:07:08.707Z,19.54
2023-05-19T16:09:53.803Z,19.50
2023-05-19T16:12:39.966Z,19.56
2023-05-19T16:15:27.318Z,19.60
2023-05-19T16:18:16.014Z,19.71
2023-05-19T16:21:01.676Z,19.63
2023-05-19T16:23:46.560Z,19.62
2023-05-19T16:26:37.058Z,19.50
2023-05-19T16:29:22.608Z,19.31
2023-05-19T16:32:07.750Z,19.20
2023-05-19T16:34:54.119Z,18.97
2023-05-19T16:37:39.330Z,19.05
2023-05-19T16:40:33.785Z,19.08
2023-05-19T16:46:24.014Z,19.15
2023-05-19T16:49:12.869Z,19.15
2023-05-19T16:51:57.966Z,19.28
2023-05-19T16:54:42.984Z,19.32
2023-05-19T16:57:28.798Z,19.31
2023-05-19T17:00:14.414Z,19.17
2023-05-19T17:02:59.639Z,19.05
2023-05-19T17:05:44.781Z,19.00
2023-05-19T17:08:29.824Z,18.93
2023-05-19T17:11:15.075Z,19.02
2023-05-19T17:13:59.927Z,18.88
2023-05-19T17:16:44.785Z,18.89
2023-05-19T17:19:29.679Z,19.02
2023-05-19T17:22:15.121Z,19.02
2023-05-19T17:24:59.916Z,18.84
2023-05-19T17:27:44.947Z,18.82
2023-05-19T17:30:30.295Z,18.77
2023-05-19T17:33:15.495Z,18.60
2023-05-19T17:36:03.715Z,18.53
2023-05-19T17:38:52.090Z,18.48
2023-05-19T17:41:37.002Z,18.47
2023-05-19T17:44:21.878Z,18.58
2023-05-19T17:47:07.981Z,18.47
2023-05-19T17:49:55.505Z,18.38
2023-05-19T17:52:42.929Z,18.41
2023-05-19T17:55:30.226Z,18.37
2023-05-19T17:58:15.529Z,18.20
2023-05-19T18:01:00.829Z,18.18
2023-05-19T18:03:50.146Z,18.23
2023-05-19T18:06:39.251Z,18.15
2023-05-19T18:09:28.581Z,18.06
2023-05-19T18:12:14.696Z,17.90
2023-05-19T18:15:01.292Z,17.88
2023-05-19T18:17:46.281Z,17.70
2023-05-19T18:20:33.097Z,17.68
2023-05-19T18:23:19.381Z,17.69
2023-05-19T18:26:10.613Z,17.58
2023-05-19T18:28:59.755Z,17.63
2023-05-19T18:31:45.673Z,17.49
2023-05-19T18:34:30.674Z,17.37
2023-05-19T18:37:15.552Z,17.40
2023-05-19T18:40:01.385Z,17.27
2023-05-19T18:42:49.131Z,17.19
2023-05-19T18:45:33.998Z,17.13
2023-05-19T18:48:22.112Z,17.07
2023-05-19T18:51:08.347Z,17.10
2023-05-19T18:53:57.587Z,17.00
2023-05-19T18:56:43.351Z,16.99
2023-05-19T18:59:31.435Z,16.82
2023-05-19T19:02:18.481Z,16.89
2023-05-19T19:05:08.254Z,16.77
2023-05-19T19:07:53.947Z,16.53
2023-05-19T19:10:43.846Z,16.45
2023-05-19T19:13:30.746Z,16.43
2023-05-19T19:16:16.516Z,16.35
2023-05-19T19:19:03.693Z,16.26
2023-05-19T19:21:51.219Z,16.25
2023-05-19T19:24:36.974Z,16.00
2023-05-19T19:27:21.976Z,16.04
2023-05-19T19:30:08.646Z,15.99
2023-05-19T19:32:55.560Z,15.93
2023-05-19T19:35:41.142Z,15.89
2023-05-19T19:38:26.856Z,15.79
2023-05-19T19:41:11.839Z,15.71
2023-05-19T19:43:57.415Z,15.65
2023-05-19T19:46:42.397Z,15.55
2023-05-19T19:49:27.245Z,15.44
2023-05-19T19:52:12.182Z,15.39
2023-05-19T19:55:01.464Z,15.29
2023-05-19T19:57:51.549Z,15.30
2023-05-19T20:00:36.782Z,15.32
2023-05-19T20:03:22.189Z,15.24
2023-05-19T20:06:07.955Z,15.19
2023-05-19T20:08:53.515Z,15.11
2023-05-19T20:11:38.683Z,15.11
2023-05-19T20:14:23.896Z,14.96
2023-05-19T20:17:09.263Z,15.02
2023-05-19T20:19:54.701Z,15.02
2023-05-19T20:22:40.351Z,14.95
2023-05-19T20:25:26.282Z,14.77
2023-05-19T20:28:11.546Z,14.83
2023-05-19T20:30:57.007Z,14.61
2023-05-19T20:33:41.740Z,14.73
2023-05-19T20:36:26.665Z,14.64
2023-05-19T20:39:11.716Z,14.59
2023-05-19T20:41:56.707Z,14.68
2023-05-19T20:44:41.563Z,14.59
2023-05-19T20:47:30.302Z,14.58
2023-05-19T20:50:15.960Z,14.56
2023-05-19T20:53:01.572Z,14.49
2023-05-19T20:55:46.915Z,14.40
2023-05-19T20:58:31.977Z,14.39
2023-05-19T21:01:17.023Z,14.38
2023-05-19T21:04:07.009Z,14.44
2023-05-19T21:06:52.301Z,14.33
2023-05-19T21:09:39.156Z,14.38
2023-05-19T21:12:35.981Z,14.23
2023-05-19T21:15:21.961Z,14.31
2023-05-19T21:18:17.070Z,14.29
2023-05-19T21:21:04.863Z,14.25
2023-05-19T21:23:54.014Z,14.27
2023-05-19T21:26:44.304Z,14.16
2023-05-19T21:29:29.154Z,14.13
2023-05-19T21:32:15.933Z,14.07
2023-05-19T21:35:03.919Z,14.13
2023-05-19T21:37:50.282Z,14.14
2023-05-19T21:40:36.344Z,14.12
2023-05-19T21:43:30.611Z,14.14
2023-05-19T21:46:16.480Z,14.08
2023-05-19T21:49:01.420Z,13.92
2023-05-19T21:51:46.333Z,13.97
2023-05-19T21:54:31.330Z,13.96
2023-05-19T21:57:18.019Z,13.94
2023-05-19T22:00:03.581Z,13.84
2023-05-19T22:02:48.475Z,13.70
2023-05-19T22:05:35.608Z,13.66
2023-05-19T22:08:22.313Z,13.53
2023-05-19T22:11:08.211Z,13.42
2023-05-19T22:13:54.691Z,13.43
2023-05-19T22:16:39.704Z,13.39
2023-05-19T22:19:25.185Z,13.25
2023-05-19T22:22:14.086Z,13.57
2023-05-19T22:24:59.696Z,13.58
2023-05-19T22:27:45.119Z,13.39
2023-05-19T22:30:30.660Z,13.56
2023-05-19T22:33:15.802Z,13.52
2023-05-19T22:36:00.678Z,13.46
2023-05-19T22:38:45.745Z,13.43
2023-05-19T22:41:31.399Z,13.43
2023-05-19T22:44:17.454Z,13.48
2023-05-19T22:47:02.564Z,13.57
2023-05-19T22:49:49.964Z,13.42
2023-05-19T22:52:35.207Z,13.47
2023-05-19T22:55:20.285Z,13.27
2023-05-19T22:58:06.619Z,13.20
2023-05-19T23:00:51.507Z,13.33
2023-05-19T23:03:36.709Z,13.27
2023-05-19T23:06:22.120Z,13.30
2023-05-19T23:09:09.199Z,13.16
2023-05-19T23:11:54.539Z,13.14
2023-05-19T23:14:39.716Z,13.17
2023-05-19T23:17:25.488Z,12.95
2023-05-19T23:20:12.848Z,12.88
2023-05-19T23:22:57.852Z,12.93
2023-05-19T23:25:42.811Z,13.03
2023-05-19T23:28:27.753Z,12.81
2023-05-19T23:31:12.963Z,13.02
2023-05-19T23:33:58.040Z,12.91
2023-05-19T23:36:43.967Z,12.88
2023-05-19T23:39:28.723Z,12.82
2023-05-19T23:42:13.607Z,12.84
2023-05-19T23:44:59.109Z,12.85
2023-05-19T23:47:43.877Z,12.72
2023-05-19T23:50:28.818Z,12.67
2023-05-19T23:53:14.025Z,12.57
2023-05-19T23:55:58.882Z,12.68
2023-05-19T23:58:44.889Z,12.73
